createdAt,value
2022-11-10T00:01:11.148Z,4.00
2022-11-10T00:03:42.490Z,4.10
2022-11-10T00:06:11.853Z,3.40
2022-11-10T00:08:40.038Z,3.53
2022-11-10T00:11:09.208Z,3.47
2022-11-10T00:13:59.851Z,3.80
2022-11-10T00:16:46.696Z,4.10
2022-11-10T00:19:14.838Z,3.47
2022-11-10T00:21:42.900Z,3.87
2022-11-10T00:24:10.910Z,3.07
2022-11-10T00:26:38.789Z,3.23
2022-11-10T00:29:06.667Z,3.20
2022-11-10T00:31:37.993Z,3.10
2022-11-10T00:34:06.371Z,3.50
2022-11-10T00:36:35.655Z,3.30
2022-11-10T00:39:03.775Z,3.60
2022-11-10T00:41:35.918Z,3.00
2022-11-10T00:44:03.834Z,3.10
2022-11-10T00:46:31.752Z,3.13
2022-11-10T00:49:00.994Z,3.30
2022-11-10T00:51:30.501Z,3.50
2022-11-10T00:53:58.505Z,3.33
2022-11-10T00:56:26.827Z,2.90
2022-11-10T00:58:54.728Z,2.87
2022-11-10T01:01:25.523Z,2.90
2022-11-10T01:03:54.331Z,3.03
2022-11-10T01:06:23.733Z,2.60
2022-11-10T01:08:51.837Z,2.80
2022-11-10T01:11:22.118Z,3.03
2022-11-10T01:13:53.903Z,2.50
2022-11-10T01:16:23.812Z,3.07
2022-11-10T01:18:53.101Z,2.90
2022-11-10T01:21:23.305Z,2.73
2022-11-10T01:24:22.859Z,2.70
2022-11-10T01:26:54.321Z,2.70
2022-11-10T01:29:22.868Z,2.70
2022-11-10T01:31:50.706Z,2.70
2022-11-10T01:34:18.707Z,2.90
2022-11-10T01:36:48.003Z,2.37
2022-11-10T01:39:15.828Z,2.40
2022-11-10T01:41:43.938Z,2.53
2022-11-10T01:44:14.633Z,2.37
2022-11-10T01:46:42.489Z,2.63
2022-11-10T01:49:11.411Z,3.47
2022-11-10T01:51:43.210Z,2.43
2022-11-10T01:54:16.574Z,2.57
2022-11-10T01:56:49.130Z,2.87
2022-11-10T01:59:21.234Z,2.90
2022-11-10T02:01:51.984Z,2.57
2022-11-10T02:04:22.492Z,2.53
2022-11-10T02:06:51.798Z,3.67
2022-11-10T02:09:21.406Z,2.73
2022-11-10T02:11:55.055Z,2.73
2022-11-10T02:14:23.222Z,2.67
2022-11-10T02:16:51.263Z,2.70
2022-11-10T02:19:22.679Z,2.70
2022-11-10T02:21:51.910Z,2.57
2022-11-10T02:24:20.180Z,2.67
2022-11-10T02:26:51.729Z,2.97
2022-11-10T02:29:19.873Z,2.90
2022-11-10T02:31:47.764Z,2.80
2022-11-10T02:34:15.669Z,2.70
2022-11-10T02:36:43.527Z,2.93
2022-11-10T02:39:12.872Z,3.17
2022-11-10T02:41:41.072Z,2.80
2022-11-10T02:44:09.393Z,2.63
2022-11-10T02:46:37.493Z,2.73
2022-11-10T02:49:05.641Z,2.60
2022-11-10T02:51:33.458Z,2.77
2022-11-10T02:54:01.744Z,2.80
2022-11-10T02:56:30.918Z,2.50
2022-11-10T02:58:59.461Z,2.90
2022-11-10T03:01:27.390Z,2.40
2022-11-10T03:03:55.981Z,2.63
2022-11-10T03:06:25.598Z,2.70
2022-11-10T03:09:27.150Z,2.93
2022-11-10T03:12:00.574Z,2.63
2022-11-10T03:14:31.053Z,2.60
2022-11-10T03:17:03.680Z,2.60
2022-11-10T03:19:33.019Z,3.30
2022-11-10T03:22:02.891Z,2.30
2022-11-10T03:24:32.481Z,2.40
2022-11-10T03:27:06.037Z,2.67
2022-11-10T03:29:35.811Z,2.50
2022-11-10T03:32:08.274Z,2.80
2022-11-10T03:34:37.748Z,2.87
2022-11-10T03:37:05.724Z,2.53
2022-11-10T03:39:33.885Z,2.70
2022-11-10T03:42:01.832Z,2.83
2022-11-10T03:44:32.256Z,3.00
2022-11-10T03:47:03.346Z,2.70
2022-11-10T03:49:35.941Z,2.50
2022-11-10T03:52:06.024Z,2.67
2022-11-10T03:54:33.921Z,2.77
2022-11-10T03:57:01.816Z,3.07
2022-11-10T03:59:31.294Z,2.87
2022-11-10T04:01:59.286Z,2.80
2022-11-10T04:04:44.747Z,2.97
2022-11-10T04:07:31.466Z,2.80
2022-11-10T04:09:59.405Z,2.80
2022-11-10T04:12:44.581Z,3.23
2022-11-10T04:15:32.133Z,2.90
2022-11-10T04:48:05.592Z,3.37
2022-11-10T04:50:35.537Z,3.23
2022-11-10T04:53:03.348Z,3.13
2022-11-10T04:55:31.164Z,3.43
2022-11-10T04:57:59.083Z,3.73
2022-11-10T05:00:27.220Z,3.27
2022-11-10T05:02:55.137Z,3.30
2022-11-10T05:05:22.968Z,3.70
2022-11-10T05:07:52.062Z,3.87
2022-11-10T05:10:20.352Z,3.70
2022-11-10T05:12:48.103Z,4.00
2022-11-10T05:15:15.954Z,3.57
2022-11-10T05:17:43.714Z,3.77
2022-11-10T05:20:11.581Z,3.50
2022-11-10T05:22:39.330Z,4.40
2022-11-10T05:25:09.426Z,4.10
2022-11-10T05:27:37.244Z,3.87
2022-11-10T05:30:05.849Z,4.00
2022-11-10T05:32:33.732Z,4.17
2022-11-10T05:35:01.550Z,3.90
2022-11-10T05:37:29.345Z,4.87
2022-11-10T05:39:57.180Z,4.43
2022-11-10T05:42:27.523Z,4.30
2022-11-10T05:44:55.376Z,4.33
2022-11-10T05:47:23.320Z,5.00
2022-11-10T05:49:51.162Z,5.03
2022-11-10T05:52:19.083Z,5.10
2022-11-10T05:54:47.004Z,4.40
2022-11-10T05:57:14.825Z,5.30
2022-11-10T05:59:44.143Z,5.73
2022-11-10T06:02:12.197Z,5.83
2022-11-10T06:04:40.036Z,6.07
2022-11-10T06:07:09.019Z,5.53
2022-11-10T06:09:37.956Z,5.80
2022-11-10T06:12:06.166Z,6.33
2022-11-10T06:14:33.958Z,5.20
2022-11-10T06:17:03.278Z,5.53
2022-11-10T06:19:31.194Z,5.97
2022-11-10T06:22:03.598Z,5.73
2022-11-10T06:24:34.358Z,6.30
2022-11-10T06:27:02.324Z,7.27
2022-11-10T06:29:30.232Z,7.60
2022-11-10T06:31:58.904Z,6.67
2022-11-10T06:34:29.029Z,6.07
2022-11-10T06:36:57.029Z,6.93
2022-11-10T06:39:24.917Z,6.53
2022-11-10T06:41:52.821Z,6.90
2022-11-10T06:44:40.490Z,7.27
2022-11-10T06:47:10.332Z,7.63
2022-11-10T06:49:39.498Z,7.60
2022-11-10T06:52:07.373Z,8.07
2022-11-10T06:54:35.271Z,6.93
2022-11-10T06:57:03.070Z,8.37
2022-11-10T06:59:30.887Z,8.13
2022-11-10T07:01:58.785Z,7.70
2022-11-10T07:04:26.575Z,7.90
2022-11-10T07:06:55.969Z,7.87
2022-11-10T07:09:23.805Z,7.40
2022-11-10T07:11:51.679Z,7.63
2022-11-10T07:14:19.682Z,8.03
2022-11-10T07:16:55.998Z,8.10
2022-11-10T07:19:23.815Z,8.30
2022-11-10T07:21:51.855Z,7.90
2022-11-10T07:24:21.050Z,7.90
2022-11-10T07:26:49.014Z,8.47
2022-11-10T07:29:16.982Z,8.03
2022-11-10T07:31:44.819Z,8.33
2022-11-10T07:34:12.753Z,7.67
2022-11-10T07:36:54.500Z,7.30
2022-11-10T07:39:24.125Z,7.57
2022-11-10T07:41:52.782Z,7.37
2022-11-10T07:44:22.430Z,8.57
2022-11-10T07:46:50.398Z,7.20
2022-11-10T07:49:18.267Z,7.43
2022-11-10T07:51:46.128Z,7.97
2022-11-10T07:54:14.060Z,7.27
2022-11-10T07:56:43.807Z,7.70
2022-11-10T07:59:11.645Z,7.20
2022-11-10T08:01:39.543Z,6.70
2022-11-10T08:04:07.420Z,8.00
2022-11-10T08:06:36.731Z,6.90
2022-11-10T08:09:05.065Z,6.93
2022-11-10T08:11:32.906Z,6.60
2022-11-10T08:14:02.112Z,6.73
2022-11-10T08:16:29.983Z,6.10
2022-11-10T08:18:57.952Z,6.20
2022-11-10T08:21:26.043Z,6.20
2022-11-10T08:23:54.139Z,6.70
2022-11-10T08:26:22.191Z,6.73
2022-11-10T08:28:50.075Z,6.40
2022-11-10T08:31:19.253Z,5.93
2022-11-10T08:33:47.321Z,6.13
2022-11-10T08:36:15.296Z,5.77
2022-11-10T08:38:43.322Z,5.83
2022-11-10T08:41:11.151Z,5.67
2022-11-10T08:43:39.174Z,5.53
2022-11-10T08:46:09.631Z,6.07
2022-11-10T08:48:39.169Z,5.17
2022-11-10T08:51:07.103Z,5.47
2022-11-10T08:53:34.987Z,4.97
2022-11-10T08:56:02.994Z,4.77
2022-11-10T08:58:30.967Z,4.80
2022-11-10T09:00:58.833Z,4.70
2022-11-10T09:03:27.252Z,4.43
2022-11-10T09:05:58.985Z,4.70
2022-11-10T09:08:27.661Z,4.30
2022-11-10T09:10:55.753Z,3.47
2022-11-10T09:13:28.995Z,3.80
2022-11-10T09:15:57.886Z,4.80
2022-11-10T09:18:25.761Z,4.10
2022-11-10T09:20:53.547Z,4.33
2022-11-10T09:23:24.828Z,4.97
2022-11-10T09:25:54.708Z,4.83
2022-11-10T09:28:23.908Z,4.10
2022-11-10T09:30:54.129Z,4.10
2022-11-10T09:33:22.562Z,4.13
2022-11-10T09:35:50.943Z,4.13
2022-11-10T09:38:18.851Z,3.67
2022-11-10T09:41:00.884Z,4.70
2022-11-10T09:43:34.403Z,3.30
2022-11-10T09:46:10.119Z,3.30
2022-11-10T09:48:42.991Z,3.67
2022-11-10T09:51:16.588Z,3.47
2022-11-10T09:53:51.504Z,3.40
2022-11-10T09:56:27.183Z,3.50
2022-11-10T09:58:55.311Z,3.40
2022-11-10T10:01:31.646Z,3.50
2022-11-10T10:04:08.992Z,3.40
2022-11-10T10:07:09.713Z,3.10
2022-11-10T10:09:42.315Z,3.20
2022-11-10T10:12:24.665Z,3.17
2022-11-10T10:15:10.782Z,3.10
2022-11-10T10:17:46.749Z,3.23
2022-11-10T10:20:24.689Z,3.10
2022-11-10T10:23:05.145Z,3.13
2022-11-10T10:25:36.113Z,3.03
2022-11-10T10:28:14.255Z,3.37
2022-11-10T10:30:46.326Z,3.30
2022-11-10T10:33:17.914Z,3.37
2022-11-10T10:35:47.869Z,2.97
2022-11-10T10:38:23.488Z,3.53
2022-11-10T10:40:53.213Z,3.07
2022-11-10T10:43:22.480Z,3.23
2022-11-10T10:46:06.584Z,3.47
2022-11-10T10:48:34.959Z,3.43
2022-11-10T10:51:02.843Z,3.03
2022-11-10T10:53:30.827Z,3.33
2022-11-10T10:56:02.374Z,3.17
2022-11-10T10:58:34.202Z,3.40
2022-11-10T11:01:06.948Z,3.07
2022-11-10T11:03:43.399Z,3.47
2022-11-10T11:06:21.157Z,3.13
2022-11-10T11:08:59.667Z,3.50
2022-11-10T11:11:31.402Z,3.13
2022-11-10T11:14:22.904Z,3.00
2022-11-10T11:16:53.010Z,3.07
2022-11-10T11:19:23.229Z,2.83
2022-11-10T11:22:04.977Z,3.10
2022-11-10T11:24:40.618Z,2.90
2022-11-10T11:27:15.536Z,3.43
2022-11-10T11:29:56.666Z,2.70
2022-11-10T11:32:49.410Z,3.30
2022-11-10T11:35:25.545Z,3.40
2022-11-10T11:38:06.750Z,3.00
2022-11-10T11:40:49.470Z,3.23
2022-11-10T11:43:40.602Z,3.80
2022-11-10T11:46:17.782Z,2.93
2022-11-10T11:49:02.500Z,3.60
2022-11-10T11:51:39.912Z,3.73
2022-11-10T11:54:29.389Z,3.00
2022-11-10T11:57:09.879Z,3.17
2022-11-10T11:59:58.152Z,2.80
2022-11-10T12:02:53.011Z,2.97
2022-11-10T12:05:36.596Z,2.60
2022-11-10T12:08:15.921Z,2.60
2022-11-10T12:10:55.899Z,2.37
2022-11-10T12:13:37.708Z,2.10
2022-11-10T12:16:12.975Z,2.40
2022-11-10T12:18:49.839Z,2.40
2022-11-10T12:21:26.697Z,2.50
2022-11-10T12:24:12.702Z,2.83
2022-11-10T12:26:48.389Z,2.10
2022-11-10T12:29:24.994Z,2.23
2022-11-10T12:31:56.942Z,2.37
2022-11-10T12:34:37.589Z,2.00
2022-11-10T12:37:09.092Z,2.07
2022-11-10T12:39:50.429Z,2.20
2022-11-10T12:42:22.920Z,2.03
2022-11-10T12:45:00.519Z,2.10
2022-11-10T12:47:32.866Z,2.73
2022-11-10T12:50:27.719Z,2.37
2022-11-10T12:52:59.201Z,2.27
2022-11-10T12:55:35.597Z,1.93
2022-11-10T12:58:05.400Z,2.50
2022-11-10T13:00:40.030Z,2.00
2022-11-10T13:03:15.959Z,1.80
2022-11-10T13:05:46.222Z,2.10
2022-11-10T13:08:27.816Z,1.60
2022-11-10T13:10:58.469Z,2.03
2022-11-10T13:13:26.506Z,2.17
2022-11-10T13:15:57.075Z,2.00
2022-11-10T13:18:42.192Z,2.10
2022-11-10T13:21:11.426Z,2.30
2022-11-10T13:24:14.583Z,3.27
2022-11-10T13:26:52.568Z,2.50
2022-11-10T13:29:29.462Z,2.00
2022-11-10T13:31:58.961Z,2.10
2022-11-10T13:34:29.816Z,2.40
2022-11-10T13:37:00.252Z,2.47
2022-11-10T13:39:31.893Z,2.00
2022-11-10T13:42:17.720Z,2.50
2022-11-10T13:44:47.642Z,2.47
2022-11-10T13:47:53.909Z,2.30
2022-11-10T13:50:33.638Z,2.50
2022-11-10T13:53:17.016Z,2.33
2022-11-10T13:56:01.679Z,2.20
2022-11-10T13:58:32.537Z,2.20
2022-11-10T14:01:28.990Z,2.50
2022-11-10T14:04:00.389Z,2.43
2022-11-10T14:06:40.229Z,2.20
2022-11-10T14:09:19.242Z,2.20
2022-11-10T14:11:52.109Z,2.70
2022-11-10T14:14:24.559Z,2.33
2022-11-10T14:16:54.129Z,2.60
2022-11-10T14:19:32.420Z,2.23
2022-11-10T14:22:05.364Z,2.13
2022-11-10T14:24:39.384Z,2.30
2022-11-10T14:27:14.115Z,2.40
2022-11-10T14:29:43.008Z,2.90
2022-11-10T14:32:18.855Z,2.57
2022-11-10T14:34:49.598Z,1.97
2022-11-10T14:37:24.215Z,2.37
2022-11-10T14:39:56.549Z,2.47
2022-11-10T14:42:26.935Z,2.53
2022-11-10T14:45:17.333Z,2.37
2022-11-10T14:47:53.079Z,2.33
2022-11-10T14:50:24.781Z,2.03
2022-11-10T14:52:56.433Z,2.40
2022-11-10T14:55:29.576Z,2.20
2022-11-10T14:58:04.039Z,2.17
2022-11-10T15:00:37.349Z,2.40
2022-11-10T15:03:07.507Z,2.40
2022-11-10T15:05:35.979Z,2.60
2022-11-10T15:08:05.386Z,2.17
2022-11-10T15:10:48.434Z,2.30
2022-11-10T15:13:21.223Z,2.53
2022-11-10T15:15:49.162Z,2.63
2022-11-10T15:18:26.928Z,2.10
2022-11-10T15:21:02.321Z,2.50
2022-11-10T15:23:33.986Z,2.40
2022-11-10T15:26:03.533Z,2.40
2022-11-10T15:28:33.765Z,2.50
2022-11-10T15:31:03.606Z,2.60
2022-11-10T15:33:34.975Z,2.40
2022-11-10T15:36:18.007Z,2.40
2022-11-10T15:39:01.585Z,2.73
2022-11-10T15:41:33.826Z,2.57
2022-11-10T15:44:29.989Z,2.50
2022-11-10T15:47:00.134Z,2.70
2022-11-10T15:49:31.988Z,2.67
2022-11-10T15:52:04.045Z,2.67
2022-11-10T15:54:38.636Z,2.83
2022-11-10T15:57:12.671Z,2.83
2022-11-10T15:59:40.680Z,2.67
2022-11-10T16:02:21.200Z,2.90
2022-11-10T16:04:53.406Z,2.63
2022-11-10T16:07:26.042Z,3.10
2022-11-10T16:09:54.333Z,3.17
2022-11-10T16:12:24.377Z,3.40
2022-11-10T16:14:54.548Z,2.83
2022-11-10T16:17:23.555Z,3.20
2022-11-10T16:19:51.450Z,2.63
2022-11-10T16:22:20.785Z,3.00
2022-11-10T16:24:57.915Z,2.90
2022-11-10T16:27:33.023Z,2.77
2022-11-10T16:30:01.497Z,3.53
2022-11-10T16:32:29.444Z,2.90
2022-11-10T16:34:57.346Z,2.83
2022-11-10T16:37:25.280Z,3.43
2022-11-10T16:39:53.142Z,3.37
2022-11-10T16:42:20.983Z,3.97
2022-11-10T16:44:50.262Z,3.07
2022-11-10T16:47:20.240Z,3.60
2022-11-10T16:49:49.203Z,3.60
2022-11-10T16:52:17.850Z,3.33
2022-11-10T16:54:45.986Z,3.47
2022-11-10T16:57:15.379Z,2.83
2022-11-10T16:59:45.612Z,3.60
2022-11-10T17:02:31.502Z,3.33
2022-11-10T17:04:59.593Z,3.47
2022-11-10T17:07:29.325Z,3.10
2022-11-10T17:09:57.853Z,3.63
2022-11-10T17:12:25.829Z,3.73
2022-11-10T17:14:53.760Z,3.80
2022-11-10T17:17:21.936Z,4.10
2022-11-10T17:19:52.266Z,4.20
2022-11-10T17:22:22.804Z,4.37
2022-11-10T17:24:57.345Z,3.70
2022-11-10T17:27:26.267Z,3.80
2022-11-10T17:29:54.257Z,4.03
2022-11-10T17:32:43.138Z,3.80
2022-11-10T17:35:11.930Z,3.70
2022-11-10T17:37:40.957Z,4.03
2022-11-10T17:40:19.232Z,3.97
2022-11-10T17:42:47.722Z,4.17
2022-11-10T17:45:23.456Z,3.80
2022-11-10T17:47:51.889Z,4.13
2022-11-10T17:50:23.632Z,3.77
2022-11-10T17:52:51.626Z,3.80
2022-11-10T17:55:27.339Z,4.17
2022-11-10T17:57:58.113Z,3.90
2022-11-10T18:00:28.339Z,4.40
2022-11-10T18:02:56.694Z,4.03
2022-11-10T18:05:33.611Z,4.93
2022-11-10T18:08:02.068Z,4.47
2022-11-10T18:10:30.123Z,3.90
2022-11-10T18:12:58.970Z,4.10
2022-11-10T18:15:26.877Z,4.70
2022-11-10T18:18:00.908Z,4.53
2022-11-10T18:20:30.846Z,5.20
2022-11-10T18:22:58.796Z,4.53
2022-11-10T18:25:26.788Z,4.57
2022-11-10T18:27:54.798Z,4.90
2022-11-10T18:30:23.020Z,4.70
2022-11-10T18:32:51.152Z,5.00
2022-11-10T18:35:20.661Z,5.10
2022-11-10T18:37:49.990Z,4.80
2022-11-10T18:40:17.941Z,4.93
2022-11-10T18:42:45.921Z,5.80
2022-11-10T18:45:14.175Z,4.70
2022-11-10T18:47:42.222Z,5.30
2022-11-10T18:50:11.113Z,5.73
2022-11-10T18:52:38.955Z,5.97
2022-11-10T18:55:10.230Z,5.80
2022-11-10T18:57:38.328Z,5.50
2022-11-10T19:00:07.874Z,6.00
2022-11-10T19:02:36.574Z,5.50
2022-11-10T19:05:05.189Z,5.57
2022-11-10T19:07:33.130Z,5.67
2022-11-10T19:10:01.139Z,5.37
2022-11-10T19:12:32.000Z,5.80
2022-11-10T19:15:00.688Z,5.60
2022-11-10T19:17:28.722Z,5.53
2022-11-10T19:19:57.064Z,6.20
2022-11-10T19:22:25.154Z,5.93
2022-11-10T19:25:07.747Z,5.47
2022-11-10T19:27:37.866Z,6.30
2022-11-10T19:30:06.665Z,5.80
2022-11-10T19:32:34.735Z,6.33
2022-11-10T19:35:03.805Z,6.10
2022-11-10T19:37:35.006Z,6.50
2022-11-10T19:40:04.039Z,5.73
2022-11-10T19:42:33.027Z,6.57
2022-11-10T19:45:03.556Z,6.90
2022-11-10T19:47:32.214Z,6.47
2022-11-10T19:50:00.240Z,6.57
2022-11-10T19:52:28.286Z,6.10
2022-11-10T19:54:56.157Z,6.60
2022-11-10T19:57:24.360Z,6.87
2022-11-10T19:59:52.183Z,6.50
2022-11-10T20:02:21.687Z,6.83
2022-11-10T20:05:07.632Z,7.27
2022-11-10T20:07:53.084Z,7.40
2022-11-10T20:10:20.970Z,8.03
2022-11-10T20:12:49.162Z,7.47
2022-11-10T20:15:17.616Z,7.40
2022-11-10T20:17:46.917Z,7.10
2022-11-10T20:20:15.285Z,7.40
2022-11-10T20:22:43.376Z,7.60
2022-11-10T20:25:11.837Z,6.93
2022-11-10T20:27:39.933Z,6.70
2022-11-10T20:30:09.248Z,7.43
2022-11-10T20:32:37.791Z,7.07
2022-11-10T20:35:08.315Z,6.97
2022-11-10T20:37:36.307Z,6.57
2022-11-10T20:40:10.412Z,6.73
2022-11-10T20:42:52.323Z,6.63
2022-11-10T20:45:20.290Z,7.00
2022-11-10T20:47:48.163Z,7.77
2022-11-10T20:50:23.055Z,6.30
2022-11-10T20:52:52.373Z,6.53
2022-11-10T20:55:43.801Z,7.10
2022-11-10T20:58:08.461Z,6.63
2022-11-10T21:00:36.480Z,6.77
2022-11-10T21:03:04.545Z,6.80
2022-11-10T21:05:33.930Z,7.03
2022-11-10T21:08:01.932Z,6.70
2022-11-10T21:10:30.038Z,6.53
2022-11-10T21:12:58.238Z,7.40
2022-11-10T21:15:26.421Z,7.13
2022-11-10T21:17:54.383Z,7.60
2022-11-10T21:20:22.358Z,6.27
2022-11-10T21:22:51.656Z,6.53
2022-11-10T21:25:20.662Z,7.93
2022-11-10T21:27:48.881Z,6.60
2022-11-10T21:30:22.989Z,6.70
2022-11-10T21:32:50.932Z,7.53
2022-11-10T21:35:20.163Z,7.67
2022-11-10T21:37:48.074Z,7.17
2022-11-10T21:40:17.662Z,7.43
2022-11-10T21:42:45.662Z,7.23
2022-11-10T21:45:13.689Z,7.67
2022-11-10T21:47:41.592Z,7.47
2022-11-10T21:50:09.668Z,7.40
2022-11-10T21:52:37.798Z,7.10
2022-11-10T21:55:06.823Z,7.07
2022-11-10T21:57:36.437Z,6.60
2022-11-10T22:00:05.301Z,7.07
2022-11-10T22:02:33.118Z,6.33
2022-11-10T22:05:00.940Z,7.33
2022-11-10T22:07:29.003Z,7.03
2022-11-10T22:10:14.715Z,6.93
2022-11-10T22:13:01.701Z,7.60
2022-11-10T22:15:46.842Z,6.83
2022-11-10T22:18:34.488Z,7.37
2022-11-10T22:21:02.950Z,7.13
2022-11-10T22:23:48.124Z,7.37
2022-11-10T22:26:16.439Z,7.53
2022-11-10T22:28:46.553Z,6.90
2022-11-10T22:31:14.532Z,7.70
2022-11-10T22:33:43.966Z,8.60
2022-11-10T22:36:14.837Z,7.10
2022-11-10T22:38:43.308Z,8.07
2022-11-10T22:41:32.269Z,8.07
2022-11-10T22:44:08.468Z,7.50
2022-11-10T22:46:38.564Z,6.80
2022-11-10T22:49:08.660Z,7.70
2022-11-10T22:51:37.807Z,7.30
2022-11-10T22:54:06.895Z,7.27
2022-11-10T22:56:36.087Z,7.97
2022-11-10T22:59:05.898Z,7.53
2022-11-10T23:01:34.317Z,8.10
2022-11-10T23:04:02.928Z,7.30
2022-11-10T23:06:31.476Z,7.37
2022-11-10T23:09:00.481Z,7.67
2022-11-10T23:11:30.826Z,7.33
2022-11-10T23:13:59.981Z,7.83
2022-11-10T23:16:33.283Z,8.33
2022-11-10T23:19:02.347Z,7.73
2022-11-10T23:21:32.221Z,7.67
2022-11-10T23:24:02.699Z,7.73
2022-11-10T23:26:31.064Z,7.70
2022-11-10T23:28:58.937Z,8.17
2022-11-10T23:31:30.754Z,8.27
2022-11-10T23:33:58.751Z,8.67
2022-11-10T23:36:27.805Z,10.63
2022-11-10T23:38:56.434Z,12.30
2022-11-10T23:41:26.110Z,11.77
2022-11-10T23:43:54.444Z,9.80
2022-11-10T23:46:22.714Z,10.17
2022-11-10T23:48:52.441Z,10.00
2022-11-10T23:51:25.563Z,11.67
2022-11-10T23:53:55.062Z,11.90
